Thunder radar more information blitzortung!


Radar de pluja more information rain snow radar


Visita la nostra xarxa de llocs de meteo:

Template documentation
and downloads

And another site



No particular awareness of the weather is required.    There are no Weather-warnings

Pagina Historial Weather Underground text

Diari Resum Juliol 12, 2017 Unitats:  Imperial    Mètric   Tant
« Previous Dia
SegĂźent Dia »
Diari Setmana Mensual Anual Personalitzada
  Maxima: Minima: Media:
Temperatura: 97.5 °F 71.8 °F 84.2 °F
Punt de rosada: 70.9 °F 63.3 °F 67.5 °F
Humitat: 83 % 40 % 59 %
Wind Speed: 13.8 mph 0 mph 5.6 mph
RĂ fegues de vent: 13.8 mph - -
Vent:- - SE
Pression baro: 30.1 in 29.9 in -
Precipitacions: 0 in    
Historical Graphs
 
 
Dades de taula per Juliol 12, 2017
Temps Temperatura Punt de rosada Pression baro Vent Wind Speed RĂ fegues de vent Humitat Rainfall Rate (Hourly)
00:01 75.4 °F 68.7 °F 30 in SE 4.9 mph 4.9 mph 80 % 0 in
00:06 75.4 °F 68.7 °F 30 in SE 4.6 mph 4.6 mph 80 % 0 in
04:15 77.4 °F 69.3 °F 30 in SW 1 mph 2 mph 76 % 0 in
04:25 78.3 °F 69.6 °F 30 in SSW 1 mph 2 mph 75 % 0 in
04:45 79.2 °F 69.8 °F 30 in West 2 mph 3 mph 73 % 0 in
04:55 80.6 °F 70 °F 30 in West 1 mph 2 mph 70 % 0 in
05:05 81.5 °F 70 °F 30 in SE 2 mph 3 mph 68 % 0 in
05:15 82 °F 70.3 °F 30 in South 1 mph 4 mph 68 % 0 in
05:25 82.9 °F 70 °F 30 in SSW 1 mph 3 mph 65 % 0 in
10:33 83.3 °F 69.8 °F 30 in West 3.5 mph 3.5 mph 64 % 0 in
10:38 83.7 °F 70.2 °F 30 in West 3.5 mph 3.5 mph 64 % 0 in
10:43 83.3 °F 69.8 °F 30 in WSW 5.8 mph 5.8 mph 64 % 0 in
10:48 84 °F 70.2 °F 30 in WNW 4.6 mph 4.6 mph 63 % 0 in
10:53 85.8 °F 70.9 °F 30 in South 2.9 mph 2.9 mph 61 % 0 in
10:58 85.3 °F 70.3 °F 30 in WSW 4.6 mph 4.6 mph 61 % 0 in
11:03 84.6 °F 69.6 °F 30 in West 5.8 mph 5.8 mph 61 % 0 in
11:08 84.4 °F 69.4 °F 30 in South 3.8 mph 3.8 mph 61 % 0 in
11:13 85.1 °F 69.6 °F 30 in SE 5.8 mph 5.8 mph 60 % 0 in
11:18 86.2 °F 70.2 °F 30 in SSW 4.6 mph 4.6 mph 59 % 0 in
11:23 85.6 °F 69.3 °F 30 in SSW 3.1 mph 3.1 mph 58 % 0 in
11:28 87.4 °F 70.3 °F 30 in SW 4.6 mph 4.6 mph 57 % 0 in
11:33 87.8 °F 69.6 °F 30 in SSW 4.6 mph 4.6 mph 55 % 0 in
11:38 87.6 °F 69.4 °F 30 in South 6.7 mph 6.7 mph 55 % 0 in
11:43 87.4 °F 68.7 °F 30 in SSW 4.6 mph 4.6 mph 54 % 0 in
11:48 87.8 °F 69.1 °F 30 in SSW 5.8 mph 5.8 mph 54 % 0 in
11:53 88.5 °F 69.3 °F 30 in SW 3.5 mph 3.5 mph 53 % 0 in
11:58 88.9 °F 69.1 °F 30 in SW 6.9 mph 6.9 mph 52 % 0 in
12:03 88.7 °F 68.2 °F 30 in WSW 5.8 mph 5.8 mph 51 % 0 in
12:08 89.6 °F 69.1 °F 30 in West 6.4 mph 6.4 mph 51 % 0 in
12:13 89.8 °F 68.2 °F 30 in South 3.5 mph 3.5 mph 49 % 0 in
12:18 90 °F 68.2 °F 30 in WNW 6.9 mph 6.9 mph 49 % 0 in
12:23 89.8 °F 68.2 °F 30 in WSW 4.6 mph 4.6 mph 49 % 0 in
12:28 90.3 °F 68.5 °F 30 in South 4.7 mph 4.7 mph 49 % 0 in
12:33 90.5 °F 68.7 °F 30 in WSW 5.8 mph 5.8 mph 49 % 0 in
12:38 91 °F 68.5 °F 30 in SSE 3.6 mph 3.6 mph 48 % 0 in
12:43 92.3 °F 69.3 °F 30 in SW 6.9 mph 6.9 mph 47 % 0 in
12:48 91.9 °F 68.2 °F 30 in SSW 3.5 mph 3.5 mph 46 % 0 in
12:53 93.2 °F 69.3 °F 30 in SE 2.4 mph 2.4 mph 46 % 0 in
12:58 92.7 °F 68.9 °F 30 in WSW 4.6 mph 4.6 mph 46 % 0 in
13:03 92.7 °F 68.9 °F 30 in SW 7.1 mph 7.1 mph 46 % 0 in
13:08 91.9 °F 68.2 °F 29.9 in SW 3.5 mph 3.5 mph 46 % 0 in
13:13 91.2 °F 67.5 °F 29.9 in NNE 4.6 mph 4.6 mph 46 % 0 in
13:18 92.7 °F 68.9 °F 29.9 in SW 5.8 mph 5.8 mph 46 % 0 in
13:23 92.8 °F 68.4 °F 29.9 in SW 5.8 mph 5.8 mph 45 % 0 in
13:28 92.1 °F 67.1 °F 29.9 in NE 2.4 mph 2.4 mph 44 % 0 in
13:33 93.2 °F 67.5 °F 29.9 in West 3.5 mph 3.5 mph 43 % 0 in
13:38 93.6 °F 68.4 °F 29.9 in SW 7.6 mph 7.6 mph 44 % 0 in
13:43 92.7 °F 66.9 °F 29.9 in WSW 2.6 mph 2.6 mph 43 % 0 in
13:48 94.5 °F 68.5 °F 29.9 in West 2.3 mph 2.3 mph 43 % 0 in
13:53 95 °F 68.4 °F 29.9 in West 3.5 mph 3.5 mph 42 % 0 in
13:58 94.3 °F 66.9 °F 29.9 in WSW 5.8 mph 5.8 mph 41 % 0 in
14:03 94.6 °F 67.3 °F 29.9 in East 6 mph 6 mph 41 % 0 in
14:08 93 °F 66.6 °F 29.9 in ESE 3.3 mph 3.3 mph 42 % 0 in
14:13 93.9 °F 67.3 °F 29.9 in SW 5.8 mph 5.8 mph 42 % 0 in
14:18 93.7 °F 67.3 °F 29.9 in ESE 6.9 mph 6.9 mph 42 % 0 in
14:23 94.1 °F 66.7 °F 29.9 in ESE 3.5 mph 3.5 mph 41 % 0 in
14:28 93.2 °F 66 °F 29.9 in SW 5.8 mph 5.8 mph 41 % 0 in
14:33 93 °F 66.6 °F 29.9 in ESE 8.1 mph 8.1 mph 42 % 0 in
14:38 92.5 °F 65.5 °F 29.9 in ESE 8.1 mph 8.1 mph 41 % 0 in
14:43 92.7 °F 66.2 °F 29.9 in East 4 mph 4 mph 42 % 0 in
14:48 92.7 °F 65.5 °F 29.9 in SSE 6.2 mph 6.2 mph 41 % 0 in
14:54 92.1 °F 64.9 °F 29.9 in ESE 6.9 mph 6.9 mph 41 % 0 in
14:59 92.3 °F 65.1 °F 29.9 in ESE 6.9 mph 6.9 mph 41 % 0 in
15:04 93.7 °F 66.6 °F 29.9 in SE 6.9 mph 6.9 mph 41 % 0 in
15:09 93.6 °F 66.4 °F 29.9 in ENE 8.1 mph 8.1 mph 41 % 0 in
15:14 94.5 °F 67.1 °F 29.9 in East 4.6 mph 4.6 mph 41 % 0 in
15:19 92.8 °F 65.7 °F 29.9 in SE 8.1 mph 8.1 mph 41 % 0 in
15:24 92.7 °F 65.5 °F 29.9 in ENE 10.4 mph 10.4 mph 41 % 0 in
15:29 94.1 °F 66.7 °F 29.9 in WNW 4.6 mph 4.6 mph 41 % 0 in
15:34 95 °F 66.9 °F 29.9 in SW 5.8 mph 5.8 mph 40 % 0 in
15:39 95.9 °F 67.6 °F 29.9 in SW 6.9 mph 6.9 mph 40 % 0 in
15:44 97.2 °F 68.7 °F 29.9 in SW 4 mph 4 mph 40 % 0 in
15:49 96.6 °F 68.4 °F 29.9 in SSW 8.1 mph 8.1 mph 40 % 0 in
15:54 97.5 °F 69.1 °F 29.9 in South 5.9 mph 5.9 mph 40 % 0 in
15:59 97.5 °F 69.1 °F 29.9 in SSW 4.3 mph 4.3 mph 40 % 0 in
16:04 97.5 °F 69.1 °F 29.9 in SW 7.1 mph 7.1 mph 40 % 0 in
16:09 97.2 °F 68.7 °F 29.9 in WSW 3.5 mph 3.5 mph 40 % 0 in
16:14 97 °F 68.7 °F 29.9 in WSW 3.5 mph 3.5 mph 40 % 0 in
16:19 96.1 °F 67.8 °F 29.9 in SSW 9.7 mph 9.7 mph 40 % 0 in
16:35 94.8 °F 67.5 °F 29.9 in SSW 6.9 mph 6.9 mph 41 % 0 in
16:40 94.6 °F 67.3 °F 29.9 in SW 5.8 mph 5.9 mph 41 % 0 in
16:45 95.4 °F 67.3 °F 29.9 in SW 5.8 mph 5.8 mph 40 % 0 in
16:50 95.4 °F 67.3 °F 29.9 in SW 6.4 mph 6.4 mph 40 % 0 in
16:55 94.6 °F 67.3 °F 29.9 in SW 5.8 mph 5.8 mph 41 % 0 in
17:00 94.1 °F 67.5 °F 29.9 in SW 5.8 mph 5.8 mph 42 % 0 in
17:05 94.3 °F 67.6 °F 29.9 in SW 5.8 mph 5.8 mph 42 % 0 in
17:10 95 °F 67.6 °F 29.9 in SSW 4.6 mph 4.6 mph 41 % 0 in
17:15 95 °F 67.6 °F 29.9 in SSE 2.9 mph 2.9 mph 41 % 0 in
17:20 93.9 °F 67.3 °F 29.9 in East 3.1 mph 3.1 mph 42 % 0 in
17:25 91.9 °F 65.7 °F 29.9 in SE 7.4 mph 7.4 mph 42 % 0 in
17:30 90.3 °F 64.8 °F 29.9 in SE 5.8 mph 5.8 mph 43 % 0 in
17:35 90.3 °F 64.8 °F 29.9 in ESE 6.9 mph 6.9 mph 43 % 0 in
17:40 90.3 °F 64.8 °F 29.9 in ENE 5.8 mph 5.8 mph 43 % 0 in
17:45 89.8 °F 64.2 °F 29.9 in East 9.2 mph 9.2 mph 43 % 0 in
17:50 88.7 °F 63.3 °F 29.9 in SE 9.2 mph 9.2 mph 43 % 0 in
17:55 88 °F 63.3 °F 29.9 in ESE 12.7 mph 12.7 mph 44 % 0 in
17:56 88 °F 63.3 °F 29.9 in ESE 12.7 mph 12.7 mph 44 % 0 in
18:01 88 °F 63.3 °F 29.9 in ESE 10.9 mph 10.9 mph 44 % 0 in
18:06 87.4 °F 63.5 °F 29.9 in East 8.1 mph 8.1 mph 45 % 0 in
18:11 87.3 °F 64 °F 29.9 in ENE 8.1 mph 8.1 mph 46 % 0 in
18:16 87.1 °F 63.9 °F 29.9 in ESE 9 mph 9 mph 46 % 0 in
18:21 86.9 °F 64.2 °F 29.9 in ESE 11.5 mph 11.5 mph 47 % 0 in
18:26 86.5 °F 63.9 °F 29.9 in ENE 10.4 mph 10.4 mph 47 % 0 in
18:31 86.4 °F 64.4 °F 29.9 in East 8.1 mph 8.1 mph 48 % 0 in
18:36 85.6 °F 64.2 °F 29.9 in ENE 10.4 mph 10.4 mph 49 % 0 in
18:41 85.1 °F 64.4 °F 29.9 in SSW 9.2 mph 9.2 mph 50 % 0 in
18:46 84.7 °F 64.6 °F 29.9 in ESE 10.4 mph 10.4 mph 51 % 0 in
18:51 84.4 °F 64.8 °F 29.9 in East 13.8 mph 13.8 mph 52 % 0 in
18:56 84.2 °F 65.1 °F 30 in ENE 10.4 mph 10.4 mph 53 % 0 in
19:01 83.7 °F 65.8 °F 30 in East 11.5 mph 11.5 mph 55 % 0 in
19:06 83.5 °F 66 °F 30 in ENE 13.8 mph 13.8 mph 56 % 0 in
19:11 83.5 °F 66 °F 30 in ESE 10.4 mph 10.4 mph 56 % 0 in
19:15 75.2 °F 67.5 °F 30.1 in NE 2 mph 3 mph 77 % 0 in
19:16 83.1 °F 66.4 °F 30 in ESE 8.1 mph 8.7 mph 57 % 0 in
19:21 82.8 °F 66 °F 30 in ESE 5.8 mph 6 mph 57 % 0 in
19:25 75.2 °F 67.5 °F 30.1 in ENE 2 mph 3 mph 77 % 0 in
19:26 82.6 °F 66.4 °F 30 in ENE 12.7 mph 12.7 mph 58 % 0 in
19:31 82.2 °F 66.6 °F 30 in NNE 10.2 mph 10.2 mph 59 % 0 in
19:35 75 °F 67.3 °F 30.1 in NE 2 mph 4 mph 77 % 0 in
19:36 81.9 °F 66.6 °F 30 in East 10.4 mph 10.4 mph 60 % 0 in
19:41 81.9 °F 67.1 °F 30 in ESE 9.2 mph 9.2 mph 61 % 0 in
19:45 74.8 °F 67.5 °F 30.1 in NE 2 mph 3 mph 78 % 0 in
19:46 81.7 °F 66.9 °F 30 in NW 6.9 mph 6.9 mph 61 % 0 in
19:51 81.5 °F 67.3 °F 30 in SE 6.9 mph 6.9 mph 62 % 0 in
19:55 74.8 °F 67.5 °F 30.1 in NNE 1 mph 2 mph 78 % 0 in
19:56 81.1 °F 66.9 °F 30 in East 8.1 mph 8.1 mph 62 % 0 in
20:01 80.8 °F 66.9 °F 30 in ENE 6.4 mph 6.4 mph 63 % 0 in
20:05 74.7 °F 67.3 °F 30.1 in NE 1 mph 2 mph 78 % 0 in
20:06 80.8 °F 67.5 °F 30 in ESE 8.1 mph 8.1 mph 64 % 0 in
20:11 80.6 °F 67.3 °F 30 in NNE 10.4 mph 10.4 mph 64 % 0 in
20:15 74.7 °F 67.3 °F 30.1 in ENE 1 mph 1 mph 78 % 0 in
20:16 80.2 °F 67.8 °F 30 in SE 5.8 mph 5.8 mph 66 % 0 in
20:21 80.2 °F 67.8 °F 30 in NE 11.5 mph 11.5 mph 66 % 0 in
20:25 74.5 °F 67.3 °F 30.1 in Calm     78 % 0 in
20:26 80.1 °F 67.6 °F 30 in ENE 10.2 mph 10.2 mph 66 % 0 in
20:31 79.7 °F 67.8 °F 30 in ESE 10.5 mph 10.5 mph 67 % 0 in
20:32 79.7 °F 67.8 °F 30 in SE 10.4 mph 10.4 mph 67 % 0 in
20:35 74.3 °F 66.9 °F 30.1 in Calm     78 % 0 in
20:37 79.5 °F 68 °F 30 in SSE 7.8 mph 7.8 mph 68 % 0 in
20:42 79.3 °F 67.5 °F 30 in East 10.4 mph 10.4 mph 67 % 0 in
20:45 74.3 °F 67.5 °F 30.1 in Calm     79 % 0 in
20:47 79.2 °F 67.6 °F 30 in ENE 10.4 mph 10.4 mph 68 % 0 in
20:52 79.2 °F 67.6 °F 30 in ENE 11.5 mph 11.5 mph 68 % 0 in
20:55 74.3 °F 67.5 °F 30.1 in Calm   1 mph 79 % 0 in
20:57 78.8 °F 67.3 °F 30 in East 6.9 mph 6.9 mph 68 % 0 in
21:02 78.6 °F 67.6 °F 30 in ENE 12.7 mph 12.7 mph 69 % 0 in
21:05 74.1 °F 67.3 °F 30.1 in Calm   2 mph 79 % 0 in
21:07 78.6 °F 67.6 °F 30 in ENE 8.1 mph 8.1 mph 69 % 0 in
21:13 78.4 °F 67.5 °F 30 in ESE 9.2 mph 9.2 mph 69 % 0 in
21:15 73.9 °F 66.9 °F 30.1 in Calm     79 % 0 in
21:18 78.3 °F 67.6 °F 30 in ENE 10.4 mph 10.4 mph 70 % 0 in
21:23 78.3 °F 67.6 °F 30 in ESE 10.5 mph 10.5 mph 70 % 0 in
21:25 73.8 °F 66.7 °F 30.1 in Calm     79 % 0 in
21:28 78.1 °F 67.5 °F 30 in SE 9.2 mph 9.2 mph 70 % 0 in
21:33 77.9 °F 67.3 °F 30 in ESE 10.4 mph 10.4 mph 70 % 0 in
21:35 73.2 °F 66.7 °F 30.1 in Calm     80 % 0 in
21:38 77.9 °F 67.3 °F 30 in ENE 5.8 mph 5.8 mph 70 % 0 in
21:43 77.7 °F 67.3 °F 30 in East 9.2 mph 9.2 mph 70 % 0 in
21:45 73 °F 66.9 °F 30.1 in Calm     81 % 0 in
21:48 77.7 °F 67.3 °F 30 in ESE 8.1 mph 8.1 mph 70 % 0 in
21:53 77.5 °F 67.5 °F 30 in ESE 8.1 mph 8.1 mph 71 % 0 in
21:55 73 °F 66.9 °F 30.1 in NE 1 mph 1 mph 81 % 0 in
21:58 77.5 °F 67.5 °F 30 in ENE 6.2 mph 6.2 mph 71 % 0 in
22:03 77.4 °F 67.3 °F 30 in ENE 5.8 mph 5.8 mph 71 % 0 in
22:05 73 °F 67.3 °F 30.1 in NE 1 mph 1 mph 82 % 0 in
22:08 77.4 °F 67.6 °F 30 in ENE 4.6 mph 4.6 mph 72 % 0 in
22:13 77.2 °F 67.8 °F 30 in NE 5.8 mph 5.8 mph 73 % 0 in
22:15 73 °F 67.3 °F 30.1 in Calm   1 mph 82 % 0 in
22:18 77 °F 67.6 °F 30 in East 5.4 mph 5.4 mph 73 % 0 in
22:23 76.8 °F 67.8 °F 30 in NE 6.2 mph 6.2 mph 74 % 0 in
22:25 73 °F 67.3 °F 30.1 in Calm     82 % 0 in
22:28 76.6 °F 68.2 °F 30 in East 6.9 mph 6.9 mph 75 % 0 in
22:33 76.6 °F 68.2 °F 30 in ENE 6.9 mph 6.9 mph 75 % 0 in
22:35 73 °F 67.3 °F 30.1 in ENE 1 mph 1 mph 82 % 0 in
22:38 76.5 °F 67.8 °F 30 in ENE 6.9 mph 6.9 mph 75 % 0 in
22:43 76.3 °F 67.8 °F 30 in East 5.8 mph 5.8 mph 75 % 0 in
22:45 73 °F 67.3 °F 30.1 in Calm   1 mph 82 % 0 in
22:48 76.3 °F 67.8 °F 30 in NNE 3.8 mph 3.8 mph 75 % 0 in
22:53 76.1 °F 67.6 °F 30.1 in ENE 3.5 mph 3.5 mph 75 % 0 in
22:55 72.9 °F 66.9 °F 30.1 in Calm     82 % 0 in
22:58 76.1 °F 67.6 °F 30.1 in ENE 6.4 mph 6.4 mph 75 % 0 in
23:03 75.9 °F 67.5 °F 30.1 in ENE 5.8 mph 5.8 mph 75 % 0 in
23:05 72.7 °F 66.9 °F 30.1 in Calm   1 mph 82 % 0 in
23:08 75.9 °F 67.8 °F 30.1 in East 5.9 mph 5.9 mph 76 % 0 in
23:13 75.9 °F 67.8 °F 30.1 in ENE 5.8 mph 5.8 mph 76 % 0 in
23:15 72.5 °F 66.7 °F 30 in Calm     82 % 0 in
23:18 75.9 °F 67.8 °F 30.1 in East 5.4 mph 5.4 mph 76 % 0 in
23:23 75.9 °F 67.5 °F 30.1 in ESE 5.8 mph 5.8 mph 75 % 0 in
23:25 72.1 °F 66.4 °F 30 in Calm     82 % 0 in
23:28 75.9 °F 67.8 °F 30.1 in East 3.5 mph 3.5 mph 76 % 0 in
23:33 75.7 °F 67.6 °F 30.1 in ENE 2.6 mph 2.6 mph 76 % 0 in
23:35 72.1 °F 66.7 °F 30.1 in Calm     83 % 0 in
23:38 75.7 °F 67.6 °F 30.1 in SE 5.9 mph 5.9 mph 76 % 0 in
23:43 75.6 °F 67.5 °F 30.1 in ENE 3.8 mph 3.8 mph 76 % 0 in
23:45 72 °F 66.6 °F 30 in Calm   1 mph 83 % 0 in
23:48 75.6 °F 67.8 °F 30.1 in ESE 5.6 mph 5.6 mph 77 % 0 in
23:53 75.6 °F 67.8 °F 30.1 in ENE 3.5 mph 3.5 mph 77 % 0 in
23:55 71.8 °F 66.4 °F 30 in West 1 mph 1 mph 83 % 0 in
23:58 75.4 °F 67.3 °F 30.1 in NNE 3.5 mph 3.5 mph 76 % 0 in
Meteo Sesrovires
Elogis d' Weather Underground - 3.5 mb

Guio original per  Jim McMurry - jmcmurry@mwt.net Adaptat per a la plantilla per  Wim van der Kuil - Leuven-Template.eu

Trobareu la nostra informacio del temps tambe a:

Weather Underground

AWEKAS